Rankings de siempre
Mejores tiempos personales válidos de equipo a través de todos los eventos y temporadas. Cada equipo aparece una vez por división.
Busca por nombre y abre la página donde está clasificado este récord de división.
137,321 equipos clasificados
| Pos. | Pos. AG | Equipo | Nacionalidad | Categoría de edad | TiempoMejor tiempo | Diferencia |
|---|---|---|---|---|---|---|
| 133051 | #47821 | Graeme Clokey & Ethan ClokeyGBR · M 30-34 · AG #47821 | GBR | M 30-34 | 1:48:28 | +60:48 |
| 133052 | #15640 | 家民 林 & 家輝 黃TPE · M 35-39 · AG #15640 | TPE | M 35-39 | 1:48:28 | +60:48 |
| 133053 | #47823 | 峥 汪 & 政华 党CHN · M 30-34 · AG #47823 | CHN | M 30-34 | 1:48:28 | +60:48 |
| 133054 | #496 | Juan Corona & Tom HammUSA · M 55-59 · AG #496 | USA | M 55-59 | 1:48:28 | +60:48 |
| 133055 | #17046 | Sheryar Akhtar & Shaber AkhtarNED · M 25-29 · AG #17046 | NED | M 25-29 | 1:48:28 | +60:48 |
| 133056 | #17047 | Shaber Akhtar & Sheryar AkhtarNED · M 25-29 · AG #17047 | NED | M 25-29 | 1:48:28 | +60:48 |
| 133057 | #15641 | Rem Richards & Jonathan LooiAUS · M 35-39 · AG #15641 | AUS | M 35-39 | 1:48:29 | +60:49 |
| 133058 | #9809 | Lochlain Vearncombe & Hayden DuvallGBR · M 16-24 · AG #9809 | GBR | M 16-24 | 1:48:29 | +60:49 |
| 133059 | #17048 | Ka Ming Ng & Ming Yuen LamHKG · M 25-29 · AG #17048 | HKG | M 25-29 | 1:48:29 | +60:49 |
| 133060 | #15642 | Joshua Luna & JOE ESCOBEDOUSA · M 35-39 · AG #15642 | USA | M 35-39 | 1:48:29 | +60:49 |
| 133061 | #47824 | Lean De Vos & Justin VorsterRSA · M 30-34 · AG #47824 | RSA | M 30-34 | 1:48:29 | +60:49 |
| 133062 | #15643 | Rodolfo Muhlemann & Roberto LaraCAN · M 35-39 · AG #15643 | CAN | M 35-39 | 1:48:30 | +60:50 |
| 133063 | #47825 | Edward Huang & Ray XuUSA · M 30-34 · AG #47825 | USA | M 30-34 | 1:48:30 | +60:50 |
| 133064 | #18969 | Justin Pillay & Brett RogersRSA · M 40-44 · AG #18969 | RSA | M 40-44 | 1:48:30 | +60:50 |
| 133065 | #17049 | Yashua Mpolokeng & Malachizodok MpolokengRSA · M 25-29 · AG #17049 | RSA | M 25-29 | 1:48:30 | +60:50 |
| 133066 | #18970 | Aries Lobrin & Jonathan KoutoulakisCAN · M 40-44 · AG #18970 | CAN | M 40-44 | 1:48:30 | +60:50 |
| 133067 | -- | Alif Tarmihim & Furqan FakarSIN · M MU29 | SIN | M MU29 | 1:48:30 | +60:50 |
| 133068 | #47826 | Alexis Daniel Vizuett Romero & Edgar David Vizuett MenesesMEX · M 30-34 · AG #47826 | MEX | M 30-34 | 1:48:30 | +60:50 |
| 133069 | #17050 | Muhd Rashidee & Helmy HalimSIN · M 25-29 · AG #17050 | SIN | M 25-29 | 1:48:30 | +60:50 |
| 133070 | #9810 | Max Finkeldey & Miko FinkeldeyM 16-24 · AG #9810 | -- | M 16-24 | 1:48:30 | +60:50 |
| 133071 | #18971 | Guruprasad DV & Raghunandana DVIND · M 40-44 · AG #18971 | IND | M 40-44 | 1:48:30 | +60:50 |
| 133072 | #9811 | Mathieu Rougerie & Thomas RougerieFRA · M 16-24 · AG #9811 | FRA | M 16-24 | 1:48:30 | +60:50 |
| 133073 | #18972 | Herve Girardon & Jerome DenizotFRA · M 40-44 · AG #18972 | FRA | M 40-44 | 1:48:31 | +60:51 |
| 133074 | #4189 | Andre Van Der Stap & Boudewijn Van Der StapNED · M 45-49 · AG #4189 | NED | M 45-49 | 1:48:31 | +60:51 |
| 133075 | #47827 | Jonathan Bustos & Andrew HoangUSA · M 30-34 · AG #47827 | USA | M 30-34 | 1:48:31 | +60:51 |
Página 5,323 de 5,493